Portada
METAR-TAF:

METAR-TAF

Aeroports :

Lancaster, Carolina del Sud, Estats Units d'Amèrica

latitud: 34-43-22N, longitud: 080-51-17W, altitud: 148 m

Observació

L'informe es va fer fa 20 minuts, a les 00:15 UTC
Vent 7 kt del Est/Sud-Est
Temperatura 24°C
Humitat 89%
Pressió 1016 hPa
Visibilitat: 16.1 km
Cel clar

METAR: KLKR 110015Z AUTO 12007KT 10SM CLR 24/22 A3001 RMK AO2 LTG DSNT SE

Hora: 20:35 (00:35 UTC)


TAF: manca

Observacions i pronòstics meteorològics de més de 4000 aeroports (METAR i TAF).

Les estacions disponibles són els punts grocs i vermells al mapa.

Posi el ratolí al punt desitjat per veure el nom de l'estació.

Feu clic per veure les observacions i els pronòstics meteorològics.

Per canviar el mapa: feu clic els botons verds amb una creu de color negre per apropar; al botó verd amb un guió per allunyar la imatge; o en les fletxes verdes per a mapes adjacents.


METAR-TAF: